createdAt,value
2018-07-19T05:48:38.132Z,2.40
2018-07-19T05:51:06.631Z,2.60
2018-07-19T05:53:34.764Z,2.52
2018-07-19T05:56:02.940Z,2.35
2018-07-19T05:58:31.055Z,2.52
2018-07-19T06:00:59.353Z,2.57
2018-07-19T06:03:27.461Z,2.10
2018-07-19T06:05:55.827Z,2.63
2018-07-19T06:08:23.911Z,3.17
2018-07-19T06:10:52.051Z,3.07
2018-07-19T06:13:20.231Z,3.10
2018-07-19T06:15:48.878Z,3.47
2018-07-19T06:18:16.987Z,2.50
2018-07-19T06:20:45.647Z,2.77
2018-07-19T06:23:13.735Z,2.93
2018-07-19T06:25:41.894Z,3.43
2018-07-19T06:28:09.995Z,2.70
2018-07-19T06:30:38.371Z,2.67
2018-07-19T06:33:06.459Z,2.87
2018-07-19T06:35:34.560Z,2.20
2018-07-19T06:38:02.666Z,3.10
2018-07-19T06:40:30.779Z,3.20
2018-07-19T06:42:58.872Z,2.90
2018-07-19T06:45:33.702Z,2.80
2018-07-19T06:48:01.791Z,3.17
2018-07-19T06:50:29.888Z,3.40
2018-07-19T06:52:58.051Z,3.90
2018-07-19T06:55:26.225Z,3.63
2018-07-19T06:57:54.619Z,3.43
2018-07-19T07:00:23.023Z,3.47
2018-07-19T07:02:51.119Z,3.87
2018-07-19T07:05:19.203Z,4.20
2018-07-19T07:07:47.299Z,3.60
2018-07-19T07:10:15.415Z,3.23
2018-07-19T07:12:43.585Z,3.20
2018-07-19T07:15:11.741Z,3.50
2018-07-19T07:17:39.859Z,3.80
2018-07-19T07:20:07.960Z,3.90
2018-07-19T07:22:36.085Z,3.30
2018-07-19T07:25:04.380Z,4.13
2018-07-19T07:27:32.467Z,4.30
2018-07-19T07:30:00.890Z,4.90
2018-07-19T07:32:28.972Z,3.20
2018-07-19T07:34:57.133Z,3.60
2018-07-19T07:37:25.261Z,3.35
2018-07-19T07:39:53.355Z,4.20
2018-07-19T07:42:21.462Z,2.97
2018-07-19T07:44:49.539Z,3.07
2018-07-19T07:47:17.630Z,3.03
2018-07-19T07:49:45.734Z,2.50
2018-07-19T07:52:13.892Z,3.20
2018-07-19T07:54:41.983Z,3.37
2018-07-19T07:57:10.148Z,3.10
2018-07-19T07:59:38.261Z,3.63
2018-07-19T08:02:06.368Z,2.97
2018-07-19T08:04:34.483Z,3.20
2018-07-19T08:07:02.927Z,3.47
2018-07-19T08:09:31.056Z,3.83
2018-07-19T08:11:59.165Z,2.97
2018-07-19T08:14:27.271Z,3.10
2018-07-19T08:16:55.404Z,3.30
2018-07-19T08:19:23.551Z,3.13
2018-07-19T08:21:51.660Z,2.60
2018-07-19T08:24:19.771Z,2.67
2018-07-19T08:26:47.856Z,2.80
2018-07-19T08:29:15.964Z,2.73
2018-07-19T08:31:44.071Z,3.53
2018-07-19T08:34:12.280Z,2.70
2018-07-19T08:36:40.432Z,2.70
2018-07-19T08:39:11.524Z,2.80
2018-07-19T08:41:39.665Z,2.93
2018-07-19T08:44:07.971Z,2.93
2018-07-19T08:46:36.093Z,2.37
2018-07-19T08:49:04.210Z,2.57
2018-07-19T08:51:32.882Z,2.93
2018-07-19T08:54:00.990Z,3.13
2018-07-19T08:56:29.627Z,3.03
2018-07-19T08:58:58.154Z,2.58
2018-07-19T09:01:26.266Z,2.60
2018-07-19T09:03:54.708Z,3.33
2018-07-19T09:06:23.776Z,2.73
2018-07-19T09:08:51.919Z,3.03
2018-07-19T09:11:20.137Z,2.65
2018-07-19T09:13:48.323Z,3.13
2018-07-19T09:16:16.444Z,2.80
2018-07-19T09:18:44.604Z,3.00
2018-07-19T09:21:12.734Z,3.30
2018-07-19T09:23:40.852Z,2.93
2018-07-19T09:26:08.997Z,3.10
2018-07-19T09:28:37.114Z,3.30
2018-07-19T09:31:05.589Z,2.50
2018-07-19T09:33:33.719Z,2.77
2018-07-19T09:36:01.820Z,3.00
2018-07-19T09:38:30.098Z,3.00
2018-07-19T09:40:58.169Z,3.00
2018-07-19T09:43:26.290Z,2.58
2018-07-19T09:45:54.391Z,2.53
2018-07-19T09:48:23.451Z,2.30
2018-07-19T09:50:52.605Z,2.70
2018-07-19T09:53:20.720Z,3.43
2018-07-19T09:55:49.112Z,2.53
2018-07-19T09:58:17.163Z,2.53
2018-07-19T10:00:50.654Z,2.23
2018-07-19T10:03:18.867Z,2.30
2018-07-19T10:05:47.048Z,2.42
2018-07-19T10:08:15.135Z,2.73
2018-07-19T10:10:43.237Z,3.25
2018-07-19T10:13:11.412Z,2.90
2018-07-19T10:15:39.503Z,2.80
2018-07-19T10:18:07.593Z,3.00
2018-07-19T10:20:35.754Z,2.10
2018-07-19T10:23:03.824Z,3.03
2018-07-19T10:25:31.951Z,2.40
2018-07-19T10:28:00.069Z,2.20
2018-07-19T10:30:28.173Z,2.17
2018-07-19T10:32:57.280Z,2.23
2018-07-19T10:35:25.447Z,2.20
2018-07-19T10:37:54.485Z,2.22
2018-07-19T10:40:22.579Z,2.40
2018-07-19T10:42:50.680Z,2.57
2018-07-19T10:45:18.816Z,2.47
2018-07-19T10:47:46.925Z,2.50
2018-07-19T10:50:15.119Z,2.93
2018-07-19T10:52:43.207Z,2.40
2018-07-19T10:55:11.817Z,2.10
2018-07-19T10:57:39.952Z,2.30
2018-07-19T11:00:08.270Z,2.40
2018-07-19T11:02:36.387Z,2.30
2018-07-19T11:05:05.103Z,2.10
2018-07-19T11:07:33.211Z,2.50
2018-07-19T11:10:01.454Z,2.50
2018-07-19T11:12:29.517Z,2.42
2018-07-19T11:14:57.607Z,2.12
2018-07-19T11:17:25.879Z,2.42
2018-07-19T11:19:54.039Z,2.03
2018-07-19T11:22:22.146Z,2.00
2018-07-19T11:24:50.342Z,2.63
2018-07-19T11:27:18.456Z,2.00
2018-07-19T11:29:46.546Z,2.10
2018-07-19T11:32:14.643Z,2.30
2018-07-19T11:34:42.739Z,2.40
2018-07-19T11:37:10.950Z,2.20
2018-07-19T11:39:39.059Z,1.90
2018-07-19T11:42:07.293Z,2.52
2018-07-19T11:44:35.402Z,2.60
2018-07-19T11:47:03.542Z,2.03
2018-07-19T11:49:31.663Z,2.40
2018-07-19T11:51:59.744Z,2.30
2018-07-19T11:54:27.917Z,2.20
2018-07-19T11:56:56.021Z,2.07
2018-07-19T11:59:24.222Z,2.47
2018-07-19T12:01:52.415Z,2.00
2018-07-19T12:04:20.732Z,2.60
2018-07-19T12:06:48.869Z,2.40
2018-07-19T12:09:16.967Z,1.80
2018-07-19T12:11:45.093Z,2.47
2018-07-19T12:14:13.873Z,2.40
2018-07-19T12:16:42.354Z,2.00
2018-07-19T12:19:10.601Z,2.10
2018-07-19T12:21:38.732Z,2.27
2018-07-19T12:24:07.826Z,1.87
2018-07-19T12:26:36.720Z,1.83
2018-07-19T12:29:04.852Z,2.33
2018-07-19T12:31:33.020Z,2.00
2018-07-19T12:34:01.499Z,2.70
2018-07-19T12:36:29.663Z,1.97
2018-07-19T12:38:58.003Z,2.33
2018-07-19T12:41:26.126Z,2.63
2018-07-19T12:43:54.205Z,2.40
2018-07-19T12:46:22.313Z,2.10
2018-07-19T12:48:50.370Z,1.80
